createdAt,value
2016-11-14T09:56:03.406Z,1033.69
2016-11-14T09:56:29.013Z,1033.67
2016-11-14T09:56:54.567Z,1033.67
2016-11-14T09:57:20.201Z,1033.65
2016-11-14T09:57:45.861Z,1033.59
2016-11-14T09:58:11.439Z,1033.61
2016-11-14T09:58:37.085Z,1033.6
2016-11-14T09:59:02.674Z,1033.58
2016-11-14T09:59:28.261Z,1033.59
2016-11-14T09:59:53.840Z,1033.59
2016-11-14T10:00:19.402Z,1033.63
2016-11-14T10:00:44.960Z,1033.61
2016-11-14T10:01:10.522Z,1033.64
2016-11-14T10:01:36.072Z,1033.61
2016-11-14T10:02:01.695Z,1033.61
2016-11-14T10:02:27.241Z,1033.64
2016-11-14T10:02:52.869Z,1033.59
2016-11-14T10:03:18.466Z,1033.56
2016-11-14T10:03:44.020Z,1033.56
2016-11-14T10:04:09.650Z,1033.58
2016-11-14T10:04:35.195Z,1033.57
2016-11-14T10:05:00.756Z,1033.59
2016-11-14T10:05:26.291Z,1033.58
2016-11-14T10:05:51.851Z,1033.57
2016-11-14T10:06:17.412Z,1033.58
2016-11-14T10:06:43.052Z,1033.59
2016-11-14T10:07:08.614Z,1033.57
2016-11-14T10:07:34.163Z,1033.57
2016-11-14T10:07:59.725Z,1033.56
2016-11-14T10:08:57.992Z,1033.52
2016-11-14T10:09:23.567Z,1033.56
2016-11-14T10:09:49.126Z,1033.53
2016-11-14T10:10:14.702Z,1033.54
2016-11-14T10:10:40.280Z,1033.5
2016-11-14T10:11:05.821Z,1033.53
2016-11-14T10:11:31.402Z,1033.53
2016-11-14T10:11:56.946Z,1033.56
2016-11-14T10:12:22.482Z,1033.52
2016-11-14T10:12:48.052Z,1033.53
2016-11-14T10:13:13.650Z,1033.54
2016-11-14T10:13:39.202Z,1033.5
2016-11-14T10:14:04.872Z,1033.57
2016-11-14T10:14:30.442Z,1033.53
2016-11-14T10:14:55.985Z,1033.52
2016-11-14T10:15:21.533Z,1033.49
2016-11-14T10:15:47.140Z,1033.54
2016-11-14T10:16:12.710Z,1033.52
2016-11-14T10:16:38.273Z,1033.53
2016-11-14T10:17:03.818Z,1033.44
2016-11-14T10:17:29.371Z,1033.48
2016-11-14T10:17:54.944Z,1033.45
2016-11-14T10:18:20.607Z,1033.47
2016-11-14T10:18:46.158Z,1033.44
2016-11-14T10:19:11.700Z,1033.51
2016-11-14T10:19:37.265Z,1033.43
2016-11-14T10:20:02.806Z,1033.47
2016-11-14T10:20:28.471Z,1033.47
2016-11-14T10:20:54.020Z,1033.46
2016-11-14T10:21:19.591Z,1033.44
2016-11-14T10:21:45.159Z,1033.45
2016-11-14T10:22:10.712Z,1033.42
2016-11-14T10:22:36.277Z,1033.46
2016-11-14T10:23:01.820Z,1033.45
2016-11-14T10:23:27.362Z,1033.45
2016-11-14T10:23:52.973Z,1033.43
2016-11-14T10:24:18.506Z,1033.45
2016-11-14T10:24:44.071Z,1033.43
2016-11-14T10:25:09.629Z,1033.45
2016-11-14T10:25:35.172Z,1033.4
2016-11-14T10:26:00.759Z,1033.39
2016-11-14T10:26:26.306Z,1033.36
2016-11-14T10:26:52.109Z,1033.33
2016-11-14T10:27:17.574Z,1033.33
2016-11-14T10:27:43.161Z,1033.32
2016-11-14T10:28:08.722Z,1033.3
2016-11-14T10:28:34.292Z,1033.31
2016-11-14T10:28:59.866Z,1033.29
2016-11-14T10:29:25.410Z,1033.31
2016-11-14T10:29:51.199Z,1033.3
2016-11-14T10:30:16.562Z,1033.25
2016-11-14T10:30:42.125Z,1033.3
2016-11-14T10:31:07.690Z,1033.3
2016-11-14T10:31:33.250Z,1033.28
2016-11-14T10:31:58.831Z,1033.26
2016-11-14T10:32:24.393Z,1033.25
2016-11-14T10:32:50.061Z,1033.27
2016-11-14T10:33:15.630Z,1033.27
2016-11-14T10:33:41.201Z,1033.24
2016-11-14T10:34:06.831Z,1033.22
2016-11-14T10:34:32.443Z,1033.27
2016-11-14T10:34:57.964Z,1033.21
2016-11-14T10:35:23.529Z,1033.23
2016-11-14T10:35:49.086Z,1033.26
2016-11-14T10:36:14.657Z,1033.26
2016-11-14T10:36:40.265Z,1033.26
2016-11-14T10:37:05.834Z,1033.26
2016-11-14T10:37:31.376Z,1033.23
2016-11-14T10:37:56.945Z,1033.24
2016-11-14T10:38:22.628Z,1033.22
2016-11-14T10:38:48.191Z,1033.24
2016-11-14T10:39:13.885Z,1033.23
2016-11-14T10:39:39.476Z,1033.21
2016-11-14T10:40:05.054Z,1033.21
2016-11-14T10:40:30.609Z,1033.22
2016-11-14T10:40:56.303Z,1033.23
2016-11-14T10:41:21.874Z,1033.23
2016-11-14T10:41:47.439Z,1033.24
2016-11-14T10:42:13.092Z,1033.21
2016-11-14T10:42:38.634Z,1033.22
2016-11-14T10:43:04.233Z,1033.14
2016-11-14T10:43:29.796Z,1033.15
2016-11-14T10:43:55.494Z,1033.14
2016-11-14T10:44:21.059Z,1033.18
2016-11-14T10:44:46.644Z,1033.12
2016-11-14T10:45:12.302Z,1033.11
2016-11-14T10:45:37.997Z,1033.17
2016-11-14T10:46:03.537Z,1033.2
2016-11-14T10:46:29.091Z,1033.15
2016-11-14T10:46:54.683Z,1033.12
2016-11-14T10:47:20.258Z,1033.09
2016-11-14T10:47:45.819Z,1033.16
2016-11-14T10:48:11.369Z,1033.16
2016-11-14T10:49:09.534Z,1033.12
2016-11-14T10:49:35.103Z,1033.11
2016-11-14T10:50:00.657Z,1033.09
2016-11-14T10:50:26.310Z,1033.07
2016-11-14T10:50:51.873Z,1033.07
2016-11-14T10:51:17.440Z,1033.08
2016-11-14T10:51:43.048Z,1033.04
2016-11-14T10:52:08.795Z,1033.07
2016-11-14T10:52:34.353Z,1033.02
2016-11-14T10:52:59.950Z,1033.04
2016-11-14T10:53:25.561Z,1033
2016-11-14T10:53:51.128Z,1033.04
2016-11-14T10:54:16.716Z,1033.03
2016-11-14T10:54:42.352Z,1033.04
2016-11-14T10:55:07.922Z,1033.01
2016-11-14T10:55:33.761Z,1033.03
2016-11-14T10:55:59.195Z,1032.97
2016-11-14T10:56:24.726Z,1033.03
2016-11-14T10:56:50.286Z,1032.99
2016-11-14T10:57:48.402Z,1032.94
2016-11-14T10:58:14.031Z,1032.92
2016-11-14T10:58:39.623Z,1032.9
2016-11-14T10:59:05.355Z,1032.89
2016-11-14T10:59:30.908Z,1032.83
2016-11-14T10:59:56.469Z,1032.83
2016-11-14T11:00:22.011Z,1032.83
2016-11-14T11:00:47.542Z,1032.84
2016-11-14T11:01:13.217Z,1032.89
2016-11-14T11:01:38.779Z,1032.81
2016-11-14T11:02:04.334Z,1032.88
2016-11-14T11:02:29.887Z,1032.83
2016-11-14T11:02:55.556Z,1032.9
2016-11-14T11:03:21.115Z,1032.84
2016-11-14T11:03:46.671Z,1032.84
2016-11-14T11:04:12.222Z,1032.88
2016-11-14T11:04:37.817Z,1032.86
2016-11-14T11:05:03.441Z,1032.83
2016-11-14T11:05:29.018Z,1032.81
2016-11-14T11:05:54.548Z,1032.83
2016-11-14T11:06:20.207Z,1032.82
2016-11-14T11:06:45.768Z,1032.86
2016-11-14T11:07:11.350Z,1032.85
2016-11-14T11:07:37.145Z,1032.85
2016-11-14T11:08:02.741Z,1032.87
2016-11-14T11:08:28.424Z,1032.87
2016-11-14T11:08:53.996Z,1032.83
2016-11-14T11:09:19.571Z,1032.87
2016-11-14T11:09:45.253Z,1032.84
2016-11-14T11:10:10.816Z,1032.86
2016-11-14T11:10:36.370Z,1032.87
2016-11-14T11:11:39.667Z,1032.8
2016-11-14T11:12:05.235Z,1032.81
2016-11-14T11:12:30.810Z,1032.82
2016-11-14T11:12:56.352Z,1032.77
2016-11-14T11:13:22.025Z,1032.75
2016-11-14T11:13:47.617Z,1032.73
2016-11-14T11:14:13.162Z,1032.73
2016-11-14T11:14:38.752Z,1032.72
2016-11-14T11:15:04.430Z,1032.72
2016-11-14T11:15:29.990Z,1032.74
2016-11-14T11:15:55.562Z,1032.71
2016-11-14T11:16:21.147Z,1032.71
2016-11-14T11:16:46.701Z,1032.74
2016-11-14T11:17:12.230Z,1032.68
2016-11-14T11:17:37.794Z,1032.7
2016-11-14T11:18:03.360Z,1032.7
2016-11-14T11:18:28.909Z,1032.66
2016-11-14T11:18:54.462Z,1032.72
2016-11-14T11:19:20.010Z,1032.66
2016-11-14T11:19:45.718Z,1032.66
2016-11-14T11:20:11.363Z,1032.62
2016-11-14T11:20:36.921Z,1032.56
2016-11-14T11:21:02.480Z,1032.61
2016-11-14T11:21:28.143Z,1032.58
2016-11-14T11:21:53.696Z,1032.54
2016-11-14T11:22:19.233Z,1032.54
2016-11-14T11:22:44.792Z,1032.51
2016-11-14T11:23:10.360Z,1032.54
2016-11-14T11:23:35.909Z,1032.54
2016-11-14T11:24:01.472Z,1032.47
2016-11-14T11:24:27.029Z,1032.47
2016-11-14T11:24:52.589Z,1032.43
2016-11-14T11:25:18.159Z,1032.45
2016-11-14T11:26:16.422Z,1032.43
2016-11-14T11:26:41.968Z,1032.44
2016-11-14T11:27:07.529Z,1032.39
2016-11-14T11:27:33.140Z,1032.42
2016-11-14T11:27:58.651Z,1032.37
2016-11-14T11:28:24.208Z,1032.39
2016-11-14T11:28:49.746Z,1032.41
2016-11-14T11:29:15.323Z,1032.43
2016-11-14T11:29:40.930Z,1032.42
2016-11-14T11:30:06.540Z,1032.44
2016-11-14T11:30:32.087Z,1032.44
2016-11-14T11:30:57.632Z,1032.43
2016-11-14T11:31:23.200Z,1032.44
2016-11-14T11:31:48.749Z,1032.43
2016-11-14T11:32:14.361Z,1032.39
2016-11-14T11:32:39.930Z,1032.36
2016-11-14T11:33:05.485Z,1032.37
2016-11-14T11:33:31.055Z,1032.35
2016-11-14T11:33:56.627Z,1032.33
2016-11-14T11:34:22.184Z,1032.32
2016-11-14T11:34:48.533Z,1032.32
2016-11-14T11:35:14.082Z,1032.3
2016-11-14T11:35:40.340Z,1032.31
2016-11-14T11:36:05.202Z,1032.3
2016-11-14T11:36:31.421Z,1032.3
2016-11-14T11:36:56.972Z,1032.27
2016-11-14T11:37:22.540Z,1032.27
2016-11-14T11:37:48.143Z,1032.29
2016-11-14T11:38:13.711Z,1032.28
2016-11-14T11:38:39.281Z,1032.29
2016-11-14T11:39:04.841Z,1032.27
2016-11-14T11:39:30.414Z,1032.24
2016-11-14T11:39:55.959Z,1032.26
2016-11-14T11:40:21.668Z,1032.22
2016-11-14T11:40:47.273Z,1032.22
2016-11-14T11:41:12.828Z,1032.22
2016-11-14T11:41:38.387Z,1032.2
2016-11-14T11:42:03.949Z,1032.22
2016-11-14T11:42:29.510Z,1032.23
2016-11-14T11:42:55.103Z,1032.17
2016-11-14T11:43:20.656Z,1032.16
2016-11-14T11:43:46.328Z,1032.14
2016-11-14T11:44:11.896Z,1032.15
2016-11-14T11:44:37.455Z,1032.15
2016-11-14T11:45:03.111Z,1032.18
2016-11-14T11:45:28.698Z,1032.17
2016-11-14T11:45:54.274Z,1032.14
2016-11-14T11:46:19.825Z,1032.15
2016-11-14T11:46:45.506Z,1032.13
2016-11-14T11:47:11.084Z,1032.15
2016-11-14T11:47:36.644Z,1032.21
2016-11-14T11:48:02.215Z,1032.17
2016-11-14T11:48:27.831Z,1032.19
2016-11-14T11:48:53.433Z,1032.15
2016-11-14T11:49:19.110Z,1032.2
2016-11-14T11:49:44.794Z,1032.21
2016-11-14T11:50:10.399Z,1032.21
2016-11-14T11:50:35.966Z,1032.2
2016-11-14T11:51:01.631Z,1032.26
2016-11-14T11:51:27.322Z,1032.21
2016-11-14T11:51:52.982Z,1032.19
2016-11-14T11:52:18.529Z,1032.22
2016-11-14T11:52:44.230Z,1032.19
2016-11-14T11:53:09.817Z,1032.2
2016-11-14T11:53:35.351Z,1032.2
2016-11-14T11:54:01.019Z,1032.17
2016-11-14T11:54:26.573Z,1032.12
2016-11-14T11:54:52.125Z,1032.1
2016-11-14T11:55:17.733Z,1032.09
2016-11-14T11:55:43.272Z,1032.1
2016-11-14T11:56:08.836Z,1032.04
2016-11-14T11:56:34.407Z,1031.99
2016-11-14T11:56:59.973Z,1031.98
2016-11-14T11:57:25.525Z,1031.94
2016-11-14T11:57:51.082Z,1031.94
2016-11-14T11:58:16.662Z,1031.9
2016-11-14T11:58:42.237Z,1031.88
2016-11-14T11:59:07.788Z,1031.88
2016-11-14T11:59:33.366Z,1031.89
2016-11-14T11:59:58.927Z,1031.93
2016-11-14T12:00:24.502Z,1031.89
2016-11-14T12:00:50.100Z,1031.95
2016-11-14T12:01:58.440Z,1031.94
2016-11-14T12:02:24.005Z,1031.98
2016-11-14T12:02:49.623Z,1032
2016-11-14T12:03:15.222Z,1032
2016-11-14T12:03:40.786Z,1032.05
2016-11-14T12:04:06.330Z,1031.98
2016-11-14T12:04:31.865Z,1031.97
2016-11-14T12:04:57.422Z,1031.99
2016-11-14T12:05:22.970Z,1032
2016-11-14T12:05:48.514Z,1031.96
2016-11-14T12:06:14.145Z,1031.95
2016-11-14T12:06:39.732Z,1031.96
2016-11-14T12:07:05.313Z,1031.97
2016-11-14T12:07:30.923Z,1031.94
2016-11-14T12:07:56.468Z,1031.93
2016-11-14T12:08:21.993Z,1031.93
2016-11-14T12:08:47.575Z,1031.9
2016-11-14T12:09:13.127Z,1031.9
2016-11-14T12:09:38.685Z,1031.85
2016-11-14T12:10:04.259Z,1031.86
2016-11-14T12:10:29.813Z,1031.86
2016-11-14T12:10:55.377Z,1031.85
2016-11-14T12:11:20.986Z,1031.88
2016-11-14T12:11:46.597Z,1031.86
2016-11-14T12:12:12.147Z,1031.81
2016-11-14T12:12:37.693Z,1031.82
2016-11-14T12:13:03.243Z,1031.8
2016-11-14T12:13:28.803Z,1031.77
2016-11-14T12:13:54.362Z,1031.78
2016-11-14T12:14:19.920Z,1031.76
2016-11-14T12:14:45.512Z,1031.72
2016-11-14T12:15:11.106Z,1031.69
2016-11-14T12:15:36.661Z,1031.77
2016-11-14T12:16:02.265Z,1031.74
2016-11-14T12:16:27.819Z,1031.72
2016-11-14T12:16:53.379Z,1031.74
2016-11-14T12:17:18.941Z,1031.78
2016-11-14T12:17:44.512Z,1031.79
2016-11-14T12:18:10.081Z,1031.72
2016-11-14T12:18:35.651Z,1031.73
2016-11-14T12:19:01.196Z,1031.81
2016-11-14T12:19:26.765Z,1031.75
2016-11-14T12:19:52.456Z,1031.75
2016-11-14T12:20:18.014Z,1031.78
2016-11-14T12:20:43.569Z,1031.74
2016-11-14T12:21:09.241Z,1031.78
2016-11-14T12:21:34.862Z,1031.78
2016-11-14T12:22:00.425Z,1031.81
2016-11-14T12:22:26.019Z,1031.8
2016-11-14T12:22:51.588Z,1031.8
2016-11-14T12:23:17.141Z,1031.76
2016-11-14T12:23:43.342Z,1031.88
2016-11-14T12:24:08.501Z,1031.89
2016-11-14T12:24:34.053Z,1031.89
2016-11-14T12:24:59.667Z,1031.82
2016-11-14T12:25:25.257Z,1031.88
2016-11-14T12:25:50.816Z,1031.88
2016-11-14T12:26:16.370Z,1031.91
2016-11-14T12:26:41.921Z,1031.92
2016-11-14T12:27:07.498Z,1031.88
2016-11-14T12:27:33.098Z,1031.88
2016-11-14T12:27:58.691Z,1031.85
2016-11-14T12:28:24.389Z,1031.89
2016-11-14T12:28:49.935Z,1031.8
2016-11-14T12:29:15.504Z,1031.88
2016-11-14T12:29:41.045Z,1031.78
2016-11-14T12:30:06.641Z,1031.73
2016-11-14T12:30:32.254Z,1031.73
2016-11-14T12:30:57.870Z,1031.71
2016-11-14T12:31:23.403Z,1031.72
2016-11-14T12:31:49.029Z,1031.7
2016-11-14T12:32:14.645Z,1031.69
2016-11-14T12:32:40.219Z,1031.69
2016-11-14T12:33:05.746Z,1031.73
2016-11-14T12:33:31.283Z,1031.68
2016-11-14T12:33:56.823Z,1031.73
2016-11-14T12:34:22.354Z,1031.69
2016-11-14T12:34:47.905Z,1031.73
2016-11-14T12:35:13.479Z,1031.68
2016-11-14T12:35:39.036Z,1031.69
2016-11-14T12:36:52.435Z,1031.73
2016-11-14T12:37:17.979Z,1031.68
2016-11-14T12:37:43.583Z,1031.71
2016-11-14T12:38:09.145Z,1031.74
2016-11-14T12:38:34.704Z,1031.73
2016-11-14T12:39:00.267Z,1031.72
2016-11-14T12:39:25.825Z,1031.72
2016-11-14T12:39:51.392Z,1031.69
2016-11-14T12:40:16.919Z,1031.64
2016-11-14T12:40:42.477Z,1031.68
2016-11-14T12:41:08.065Z,1031.69
2016-11-14T12:41:33.625Z,1031.66
2016-11-14T12:41:59.211Z,1031.63
2016-11-14T12:42:24.817Z,1031.63
2016-11-14T12:42:50.371Z,1031.67
2016-11-14T12:43:15.951Z,1031.69
2016-11-14T12:43:41.553Z,1031.7
2016-11-14T12:44:07.112Z,1031.68
2016-11-14T12:44:32.656Z,1031.74
2016-11-14T12:44:58.333Z,1031.71
2016-11-14T12:45:23.908Z,1031.7
2016-11-14T12:45:49.481Z,1031.68
2016-11-14T12:46:15.059Z,1031.64
2016-11-14T12:46:40.641Z,1031.64
2016-11-14T12:47:06.195Z,1031.63
2016-11-14T12:47:31.790Z,1031.58
2016-11-14T12:47:57.305Z,1031.55
2016-11-14T12:48:22.869Z,1031.54
2016-11-14T12:48:48.412Z,1031.51
2016-11-14T12:49:13.992Z,1031.5
2016-11-14T12:49:39.564Z,1031.52
2016-11-14T12:50:05.126Z,1031.53
2016-11-14T12:50:30.703Z,1031.52
2016-11-14T12:50:56.273Z,1031.53
2016-11-14T12:51:21.842Z,1031.55
2016-11-14T12:51:47.386Z,1031.55
2016-11-14T12:52:12.999Z,1031.55
2016-11-14T12:52:38.597Z,1031.55
2016-11-14T12:53:04.150Z,1031.52
2016-11-14T12:53:29.689Z,1031.56
2016-11-14T12:53:55.216Z,1031.53
2016-11-14T12:54:20.767Z,1031.53
2016-11-14T12:54:46.382Z,1031.53
2016-11-14T12:55:11.976Z,1031.54
2016-11-14T12:55:37.588Z,1031.54
2016-11-14T12:56:03.089Z,1031.55
2016-11-14T12:56:28.665Z,1031.6
2016-11-14T12:56:54.217Z,1031.59
2016-11-14T12:57:19.800Z,1031.53
2016-11-14T12:57:45.358Z,1031.58
2016-11-14T12:58:10.939Z,1031.61
2016-11-14T12:58:36.586Z,1031.61
2016-11-14T12:59:02.144Z,1031.59
2016-11-14T12:59:27.696Z,1031.61
2016-11-14T12:59:53.532Z,1031.62
2016-11-14T13:00:18.940Z,1031.6
2016-11-14T13:00:44.509Z,1031.59
2016-11-14T13:01:10.164Z,1031.62
2016-11-14T13:01:35.725Z,1031.65
2016-11-14T13:02:01.297Z,1031.66
2016-11-14T13:02:26.862Z,1031.64
2016-11-14T13:02:52.599Z,1031.65
2016-11-14T13:03:18.169Z,1031.67
2016-11-14T13:03:43.736Z,1031.59
2016-11-14T13:04:09.404Z,1031.61
2016-11-14T13:04:34.966Z,1031.6
2016-11-14T13:05:00.514Z,1031.59
2016-11-14T13:05:26.211Z,1031.56
2016-11-14T13:05:51.791Z,1031.61
2016-11-14T13:06:17.369Z,1031.65
2016-11-14T13:06:42.959Z,1031.67
2016-11-14T13:07:08.552Z,1031.58
2016-11-14T13:07:34.110Z,1031.56
2016-11-14T13:07:59.681Z,1031.64
2016-11-14T13:08:25.290Z,1031.58
2016-11-14T13:08:50.998Z,1031.58
2016-11-14T13:09:16.558Z,1031.66
2016-11-14T13:09:42.219Z,1031.61
2016-11-14T13:10:07.769Z,1031.55
2016-11-14T13:10:33.306Z,1031.62
2016-11-14T13:10:58.866Z,1031.55
2016-11-14T13:11:24.444Z,1031.6
2016-11-14T13:11:49.999Z,1031.58
2016-11-14T13:12:15.571Z,1031.63
2016-11-14T13:12:41.140Z,1031.59
2016-11-14T13:13:06.711Z,1031.58
2016-11-14T13:13:32.289Z,1031.61
2016-11-14T13:13:57.844Z,1031.61
2016-11-14T13:14:23.412Z,1031.54
2016-11-14T13:14:48.971Z,1031.56
2016-11-14T13:15:14.550Z,1031.59
2016-11-14T13:15:40.080Z,1031.59
2016-11-14T13:16:05.731Z,1031.61
2016-11-14T13:16:31.287Z,1031.58
2016-11-14T13:16:56.895Z,1031.58
2016-11-14T13:17:22.465Z,1031.56
2016-11-14T13:17:48.020Z,1031.57
2016-11-14T13:18:13.549Z,1031.56
2016-11-14T13:18:39.109Z,1031.57
2016-11-14T13:19:04.665Z,1031.57
2016-11-14T13:19:30.228Z,1031.53
2016-11-14T13:19:55.781Z,1031.59
2016-11-14T13:20:21.344Z,1031.55
2016-11-14T13:20:46.895Z,1031.57
2016-11-14T13:21:12.457Z,1031.57
2016-11-14T13:21:38.017Z,1031.59
2016-11-14T13:22:03.709Z,1031.6
2016-11-14T13:22:29.250Z,1031.57
2016-11-14T13:22:54.826Z,1031.57
2016-11-14T13:23:20.479Z,1031.56
2016-11-14T13:23:46.034Z,1031.55
2016-11-14T13:24:11.614Z,1031.52
2016-11-14T13:24:37.214Z,1031.53
2016-11-14T13:25:02.743Z,1031.53
2016-11-14T13:25:28.292Z,1031.53
2016-11-14T13:25:53.876Z,1031.45
2016-11-14T13:26:19.447Z,1031.51
2016-11-14T13:26:45.076Z,1031.5
2016-11-14T13:27:10.635Z,1031.52
2016-11-14T13:27:36.191Z,1031.5
2016-11-14T13:28:01.911Z,1031.49
2016-11-14T13:28:27.451Z,1031.47
2016-11-14T13:28:53.006Z,1031.44
2016-11-14T13:29:18.582Z,1031.47
2016-11-14T13:29:44.148Z,1031.46
2016-11-14T13:30:09.988Z,1031.41
2016-11-14T13:30:35.362Z,1031.49
2016-11-14T13:31:00.927Z,1031.41
2016-11-14T13:31:26.572Z,1031.42
2016-11-14T13:31:52.150Z,1031.42
2016-11-14T13:32:17.724Z,1031.44
2016-11-14T13:32:43.255Z,1031.41
2016-11-14T13:33:08.818Z,1031.43
2016-11-14T13:33:34.348Z,1031.44
2016-11-14T13:33:59.903Z,1031.41
2016-11-14T13:34:25.497Z,1031.43
2016-11-14T13:34:51.092Z,1031.41
2016-11-14T13:35:16.660Z,1031.39
2016-11-14T13:35:42.194Z,1031.4
2016-11-14T13:36:07.746Z,1031.37
2016-11-14T13:36:33.309Z,1031.34
2016-11-14T13:36:58.899Z,1031.37
2016-11-14T13:37:24.418Z,1031.34
2016-11-14T13:37:49.995Z,1031.33
2016-11-14T13:38:15.588Z,1031.39
2016-11-14T13:38:41.151Z,1031.38
2016-11-14T13:39:06.713Z,1031.4
2016-11-14T13:39:32.270Z,1031.38
2016-11-14T13:39:57.826Z,1031.4
2016-11-14T13:40:23.379Z,1031.41
2016-11-14T13:40:48.942Z,1031.38
2016-11-14T13:41:14.520Z,1031.41
2016-11-14T13:41:40.121Z,1031.39
2016-11-14T13:42:05.692Z,1031.43
2016-11-14T13:42:31.239Z,1031.39
2016-11-14T13:42:56.841Z,1031.4
2016-11-14T13:43:22.415Z,1031.39
2016-11-14T13:43:47.983Z,1031.38
2016-11-14T13:44:13.531Z,1031.4
2016-11-14T13:44:39.108Z,1031.38
2016-11-14T13:45:04.665Z,1031.42
2016-11-14T13:45:30.343Z,1031.41
2016-11-14T13:45:55.892Z,1031.4
2016-11-14T13:46:21.441Z,1031.42
2016-11-14T13:46:47.034Z,1031.42
2016-11-14T13:47:12.577Z,1031.43
2016-11-14T13:47:38.149Z,1031.44
2016-11-14T13:48:03.743Z,1031.45
2016-11-14T13:48:29.339Z,1031.46
2016-11-14T13:48:54.919Z,1031.46
2016-11-14T13:49:20.459Z,1031.42
2016-11-14T13:49:46.049Z,1031.42
2016-11-14T13:50:11.597Z,1031.41
2016-11-14T13:50:37.315Z,1031.41
2016-11-14T13:51:02.858Z,1031.43
2016-11-14T13:51:28.418Z,1031.38
2016-11-14T13:51:54.038Z,1031.38
2016-11-14T13:52:19.616Z,1031.39
2016-11-14T13:52:45.176Z,1031.37
2016-11-14T13:53:10.867Z,1031.37
2016-11-14T13:53:36.486Z,1031.38
2016-11-14T13:54:02.060Z,1031.34
2016-11-14T13:54:27.613Z,1031.41
2016-11-14T13:54:53.169Z,1031.39
2016-11-14T13:55:18.734Z,1031.34
2016-11-14T13:55:44.296Z,1031.35
2016-11-14T13:56:09.889Z,1031.34
2016-11-14T13:56:35.457Z,1031.32
2016-11-14T13:57:01.010Z,1031.32
2016-11-14T13:57:26.575Z,1031.35
2016-11-14T13:57:52.127Z,1031.32
2016-11-14T13:58:17.669Z,1031.34
2016-11-14T13:58:43.231Z,1031.33
2016-11-14T13:59:08.775Z,1031.38
2016-11-14T13:59:34.445Z,1031.36
2016-11-14T14:00:00.013Z,1031.33
2016-11-14T14:00:25.565Z,1031.36
2016-11-14T14:00:51.288Z,1031.31
2016-11-14T14:01:16.861Z,1031.34
2016-11-14T14:01:42.439Z,1031.3
2016-11-14T14:02:08.006Z,1031.32
2016-11-14T14:02:33.560Z,1031.36
2016-11-14T14:02:59.108Z,1031.36
2016-11-14T14:03:24.683Z,1031.29
2016-11-14T14:03:50.255Z,1031.28
2016-11-14T14:04:15.827Z,1031.25
2016-11-14T14:04:41.385Z,1031.28
2016-11-14T14:05:06.964Z,1031.3
2016-11-14T14:05:32.538Z,1031.28
2016-11-14T14:05:58.163Z,1031.22
2016-11-14T14:06:23.740Z,1031.26
2016-11-14T14:06:49.307Z,1031.25
2016-11-14T14:07:14.886Z,1031.23
2016-11-14T14:07:40.592Z,1031.18
2016-11-14T14:08:06.142Z,1031.23
2016-11-14T14:08:31.697Z,1031.2
2016-11-14T14:08:57.263Z,1031.18
2016-11-14T14:09:22.960Z,1031.18
2016-11-14T14:09:48.514Z,1031.18
2016-11-14T14:10:14.058Z,1031.16
2016-11-14T14:10:39.628Z,1031.14
2016-11-14T14:11:05.185Z,1031.15
2016-11-14T14:11:31.078Z,1031.12
2016-11-14T14:11:56.667Z,1031.13
2016-11-14T14:12:22.251Z,1031.09
2016-11-14T14:12:47.780Z,1031.12
2016-11-14T14:13:13.366Z,1031.1
2016-11-14T14:13:38.945Z,1031.09
2016-11-14T14:14:04.516Z,1031.07
2016-11-14T14:14:30.252Z,1031.05
2016-11-14T14:14:55.823Z,1031.15
2016-11-14T14:15:21.380Z,1031.1
2016-11-14T14:15:47.041Z,1031.06
2016-11-14T14:16:12.593Z,1031.08
2016-11-14T14:16:38.155Z,1031.1
2016-11-14T14:17:03.739Z,1031.12
2016-11-14T14:17:29.331Z,1031.05
2016-11-14T14:17:54.908Z,1031.07
2016-11-14T14:18:20.440Z,1031.05
2016-11-14T14:18:45.991Z,1031.08
2016-11-14T14:19:11.548Z,1031.06
2016-11-14T14:19:37.110Z,1031.07
2016-11-14T14:20:02.761Z,1031.09
2016-11-14T14:20:28.308Z,1031.09
2016-11-14T14:20:53.894Z,1031.07
2016-11-14T14:21:19.568Z,1031.03
2016-11-14T14:21:45.091Z,1031.03
2016-11-14T14:22:10.635Z,1031.02
2016-11-14T14:22:36.186Z,1031.04
2016-11-14T14:23:01.727Z,1031
2016-11-14T14:23:27.334Z,1030.99
2016-11-14T14:23:53.054Z,1031.06
2016-11-14T14:24:18.617Z,1031
2016-11-14T14:24:44.236Z,1031.03
2016-11-14T14:25:09.787Z,1031.03
2016-11-14T14:25:35.368Z,1031.03
2016-11-14T14:26:01.050Z,1031.05
2016-11-14T14:26:26.662Z,1031.01
2016-11-14T14:26:52.243Z,1031.01
2016-11-14T14:27:17.833Z,1031.02
2016-11-14T14:27:43.417Z,1031.05
2016-11-14T14:28:08.967Z,1031
2016-11-14T14:28:34.529Z,1030.94
2016-11-14T14:29:00.173Z,1030.94
2016-11-14T14:29:25.756Z,1030.94
2016-11-14T14:29:51.355Z,1030.92
2016-11-14T14:30:16.929Z,1030.9
2016-11-14T14:30:42.642Z,1030.89
2016-11-14T14:31:08.220Z,1030.91
2016-11-14T14:31:33.815Z,1030.9
2016-11-14T14:31:59.372Z,1030.89
2016-11-14T14:32:25.014Z,1030.93
2016-11-14T14:32:50.578Z,1030.87
2016-11-14T14:33:16.173Z,1030.86
2016-11-14T14:33:41.756Z,1030.88
2016-11-14T14:34:07.352Z,1030.86
2016-11-14T14:34:32.923Z,1030.87
2016-11-14T14:34:58.556Z,1030.89
2016-11-14T14:35:24.121Z,1030.9
2016-11-14T14:35:49.742Z,1030.85
2016-11-14T14:36:15.432Z,1030.82
2016-11-14T14:36:41.006Z,1030.84
2016-11-14T14:37:06.571Z,1030.82
2016-11-14T14:37:32.272Z,1030.79
2016-11-14T14:37:57.824Z,1030.83
2016-11-14T14:38:23.355Z,1030.77
2016-11-14T14:38:48.926Z,1030.79
2016-11-14T14:39:14.613Z,1030.82
2016-11-14T14:39:40.169Z,1030.75
2016-11-14T14:40:05.737Z,1030.77
2016-11-14T14:40:31.317Z,1030.74
2016-11-14T14:40:56.883Z,1030.72
2016-11-14T14:41:22.419Z,1030.75
2016-11-14T14:41:47.974Z,1030.73
2016-11-14T14:42:13.559Z,1030.73
2016-11-14T14:42:39.200Z,1030.77
2016-11-14T14:43:04.755Z,1030.77
2016-11-14T14:43:30.328Z,1030.74
2016-11-14T14:43:55.898Z,1030.76
2016-11-14T14:44:21.424Z,1030.78
2016-11-14T14:44:47.003Z,1030.79
2016-11-14T14:45:12.709Z,1030.75
2016-11-14T14:45:38.170Z,1030.77
2016-11-14T14:46:03.735Z,1030.77
2016-11-14T14:46:29.397Z,1030.8
2016-11-14T14:46:54.963Z,1030.8
2016-11-14T14:47:20.533Z,1030.8
2016-11-14T14:47:46.305Z,1030.79
2016-11-14T14:48:11.671Z,1030.8
2016-11-14T14:48:37.253Z,1030.82
2016-11-14T14:49:02.789Z,1030.8
2016-11-14T14:49:28.357Z,1030.79
2016-11-14T14:49:53.915Z,1030.77
2016-11-14T14:50:19.572Z,1030.75
2016-11-14T14:50:45.141Z,1030.81
2016-11-14T14:51:10.748Z,1030.74
2016-11-14T14:51:36.383Z,1030.79
2016-11-14T14:52:02.123Z,1030.78
2016-11-14T14:52:27.519Z,1030.81
2016-11-14T14:52:53.165Z,1030.81
2016-11-14T14:53:18.786Z,1030.81
2016-11-14T14:53:44.330Z,1030.78
2016-11-14T14:54:09.973Z,1030.81
2016-11-14T14:54:35.553Z,1030.78
2016-11-14T14:55:01.105Z,1030.82
2016-11-14T14:55:26.767Z,1030.8
2016-11-14T14:55:52.347Z,1030.76
2016-11-14T14:56:17.938Z,1030.79
2016-11-14T14:56:43.514Z,1030.76
2016-11-14T14:57:09.160Z,1030.76
2016-11-14T14:57:34.712Z,1030.76
2016-11-14T14:58:00.275Z,1030.72
2016-11-14T14:59:13.711Z,1030.73
2016-11-14T14:59:39.383Z,1030.77
2016-11-14T15:00:04.998Z,1030.76
2016-11-14T15:00:30.557Z,1030.77
2016-11-14T15:00:56.188Z,1030.72
2016-11-14T15:01:21.780Z,1030.75
2016-11-14T15:01:47.343Z,1030.72
2016-11-14T15:02:13.005Z,1030.75
2016-11-14T15:02:38.607Z,1030.72
2016-11-14T15:03:04.170Z,1030.75
2016-11-14T15:03:29.778Z,1030.75
2016-11-14T15:03:55.401Z,1030.77
2016-11-14T15:04:20.943Z,1030.74
2016-11-14T15:04:46.530Z,1030.72
2016-11-14T15:05:12.206Z,1030.78
2016-11-14T15:05:37.795Z,1030.72
2016-11-14T15:06:03.336Z,1030.76
2016-11-14T15:06:28.894Z,1030.72
2016-11-14T15:06:54.606Z,1030.67
2016-11-14T15:07:20.176Z,1030.71
2016-11-14T15:07:45.735Z,1030.72
2016-11-14T15:08:11.298Z,1030.74
2016-11-14T15:08:37.012Z,1030.73
2016-11-14T15:09:02.550Z,1030.74
2016-11-14T15:09:28.109Z,1030.79
2016-11-14T15:09:53.778Z,1030.74
2016-11-14T15:10:19.356Z,1030.75
2016-11-14T15:10:45.023Z,1030.76
2016-11-14T15:11:10.585Z,1030.77
2016-11-14T15:11:36.122Z,1030.77